Time;durP1;ratioP1;P1;durP2;ratioP2;P2;SDS_P1;SDS_P2;PMS_P1;PMS_P2;Temp;Humidity;BMP_temperature;BMP_pressure;BME280_temperature;BME280_humidity;BME280_pressure;Samples;Min_cycle;Max_cycle;Signal;HPM_P1;HPM_P2
2021/08/06 04:01:17;;;;;;;170.83;161.37;;;16.40;99.90;;;;;;6018605;23;20934;-76
2021/08/06 04:03:43;;;;;;;168.23;159.90;;;16.40;99.90;;;;;;6197176;23;20499;-78
2021/08/06 04:06:10;;;;;;;168.50;160.30;;;16.40;99.90;;;;;;6216365;23;20431;-77
2021/08/06 04:08:37;;;;;;;164.13;156.10;;;16.30;99.90;;;;;;6216598;23;20424;-77
2021/08/06 04:11:04;;;;;;;165.63;157.50;;;16.40;99.90;;;;;;6214773;23;20388;-76
2021/08/06 04:13:32;;;;;;;169.10;160.80;;;16.50;99.90;;;;;;6226218;23;20871;-78
2021/08/06 04:19:44;;;;;;;164.30;155.87;;;16.50;99.90;;;;;;6211891;23;20935;-90
2021/08/06 04:33:12;;;;;;;;;;;;;;;;;;;;;
2021/08/06 04:36:11;;;;;;;132.83;126.17;;;16.40;99.90;;;;;;6079408;23;20490;-86
2021/08/06 04:38:49;;;;;;;128.90;122.17;;;16.40;99.90;;;;;;6194452;23;20471;-86
2021/08/06 04:45:36;;;;;;;;;;;;;;;;;;;;;
2021/08/06 04:48:07;;;;;;;130.07;123.57;;;16.40;99.90;;;;;;6212965;23;20408;-85
2021/08/06 04:50:48;;;;;;;132.00;125.40;;;16.30;99.90;;;;;;6226428;23;20491;-84
2021/08/06 04:53:25;;;;;;;136.27;129.47;;;16.30;99.90;;;;;;6225941;23;20403;-86
2021/08/06 04:56:00;;;;;;;139.20;132.23;;;16.40;99.90;;;;;;6224998;23;20462;-85
2021/08/06 04:58:39;;;;;;;138.20;131.37;;;16.40;99.90;;;;;;6225608;23;20529;-88
2021/08/06 05:08:10;;;;;;;;;;;;;;;;;;;;;
2021/08/06 05:14:28;;;;;;;146.57;139.13;;;16.60;99.90;;;;;;6025477;23;20422;-89
2021/08/06 05:24:26;;;;;;;143.70;136.50;;;16.70;99.90;;;;;;5924659;23;20421;-88
2021/08/06 05:59:57;;;;;;;114.90;109.03;;;17.10;99.90;;;;;;5838680;22;29091487;-77
2021/08/06 06:02:30;;;;;;;115.73;109.97;;;17.20;99.90;;;;;;6164306;23;20413;-83
2021/08/06 06:04:59;;;;;;;119.80;113.80;;;17.20;99.90;;;;;;6163851;23;20413;-82
2021/08/06 06:07:26;;;;;;;118.33;112.73;;;17.20;99.90;;;;;;6163823;23;20488;-80
2021/08/06 06:09:59;;;;;;;115.47;109.87;;;17.20;99.90;;;;;;6172243;23;20421;-84
2021/08/06 06:12:30;;;;;;;112.83;107.07;;;17.40;99.90;;;;;;6173501;23;20424;-81
2021/08/06 06:15:04;;;;;;;111.50;105.97;;;17.30;99.90;;;;;;6174070;23;20511;-82
2021/08/06 06:17:31;;;;;;;105.43;100.50;;;17.40;99.90;;;;;;6174095;23;20476;-80
2021/08/06 06:19:57;;;;;;;105.63;100.70;;;17.50;99.90;;;;;;6173696;23;20437;-82
2021/08/06 06:29:20;;;;;;;107.83;102.83;;;17.40;99.90;;;;;;5894396;24;21084;-82
2021/08/06 06:32:15;;;;;;;;;;;;;;;;;;;;;
2021/08/06 06:35:04;;;;;;;105.50;100.70;;;17.60;99.90;;;;;;6173817;23;20425;-89
2021/08/06 06:37:31;;;;;;;106.07;100.97;;;17.60;99.90;;;;;;6163862;23;20406;-79
2021/08/06 06:39:58;;;;;;;107.30;102.20;;;17.70;99.90;;;;;;6154802;23;20468;-79
2021/08/06 08:58:28;;;;;;;;;;;;;;;;;;;;;
2021/08/06 09:28:57;;;;;;;11.40;10.47;;;19.60;99.90;;;;;;5890829;24;20417;-86
2021/08/06 10:15:29;;;;;;;7.13;3.40;;;21.60;99.90;;;;;;5898076;24;20457;-83
2021/08/06 10:18:00;;;;;;;6.33;2.57;;;22.60;99.90;;;;;;5924176;24;20425;-83
2021/08/06 10:46:27;;;;;;;3.60;1.37;;;21.90;99.90;;;;;;6130863;23;20924;-81
2021/08/06 10:48:56;;;;;;;3.40;1.10;;;22.70;87.70;;;;;;6137704;23;20806;-80
2021/08/06 10:51:33;;;;;;;3.60;0.90;;;23.10;74.40;;;;;;6137334;23;20413;-80
2021/08/06 10:54:33;;;;;;;5.73;1.17;;;23.90;84.20;;;;;;6127325;23;20490;-81
2021/08/06 10:57:37;;;;;;;3.03;0.87;;;24.70;57.60;;;;;;6127753;23;20415;-82
2021/08/06 11:00:05;;;;;;;4.20;1.10;;;23.90;48.00;;;;;;6137658;23;20410;-81
2021/08/06 12:46:26;;;;;;;4.50;1.67;;;23.70;33.60;;;;;;5683464;25;20291;-85
2021/08/06 12:49:07;;;;;;;6.17;1.90;;;24.00;31.90;;;;;;5829459;24;20961;-81
2021/08/06 12:51:38;;;;;;;4.70;1.50;;;24.90;31.80;;;;;;5925262;24;20405;-80
2021/08/06 12:54:05;;;;;;;5.00;1.47;;;26.10;26.20;;;;;;6051110;23;20444;-79
2021/08/06 12:56:59;;;;;;;4.90;1.73;;;25.90;20.50;;;;;;6076300;23;20988;-82
2021/08/06 12:59:26;;;;;;;4.20;1.40;;;26.20;23.80;;;;;;6077851;23;20421;-84
2021/08/06 13:02:11;;;;;;;4.93;1.50;;;25.80;17.40;;;;;;6078219;23;20416;-82
2021/08/06 13:04:38;;;;;;;4.53;1.53;;;26.50;18.00;;;;;;6077640;23;20436;-80
2021/08/06 13:07:06;;;;;;;7.03;2.10;;;26.50;16.60;;;;;;6077573;23;20442;-80
2021/08/06 13:09:37;;;;;;;4.93;1.60;;;26.20;19.10;;;;;;6076067;23;20495;-82
2021/08/06 13:12:12;;;;;;;3.80;1.50;;;25.80;16.30;;;;;;6068090;23;20457;-79
2021/08/06 13:14:40;;;;;;;3.93;1.00;;;25.60;21.00;;;;;;6068651;23;20408;-79
2021/08/06 13:17:08;;;;;;;4.63;1.43;;;25.50;19.10;;;;;;6068499;23;20412;-80
2021/08/06 13:19:41;;;;;;;4.90;1.70;;;25.10;18.60;;;;;;6068550;23;20709;-83
2021/08/06 13:22:15;;;;;;;5.80;1.70;;;25.10;21.40;;;;;;6077621;23;20480;-80
2021/08/06 14:36:16;;;;;;;3.63;1.30;;;29.20;1.00;;;;;;6066022;23;20407;-82
2021/08/06 14:38:46;;;;;;;3.97;0.80;;;29.10;2.50;;;;;;6105546;23;20403;-82
2021/08/06 14:41:21;;;;;;;4.67;1.50;;;28.30;1.00;;;;;;6094226;23;20435;-82
2021/08/06 14:43:52;;;;;;;3.67;0.97;;;27.20;1.50;;;;;;6066867;23;20776;-82
2021/08/06 14:46:30;;;;;;;;;;;;;;;;;;;;;
2021/08/06 14:48:59;;;;;;;3.60;0.90;;;26.90;1.30;;;;;;6070536;23;20709;-82
2021/08/06 14:51:31;;;;;;;3.70;0.90;;;27.10;3.50;;;;;;6157369;23;20466;-82
2021/08/06 14:53:57;;;;;;;3.87;0.90;;;27.60;1.70;;;;;;6166951;23;20457;-79
2021/08/06 15:14:10;;;;;;;3.20;0.87;;;29.10;1.00;;;;;;5753286;24;20910;-82
2021/08/06 15:16:40;;;;;;;3.10;0.80;;;28.70;1.00;;;;;;6007549;23;20466;-82
2021/08/06 15:21:55;;;;;;;3.57;0.97;;;26.80;1.90;;;;;;6008091;23;20732;-82
2021/08/06 15:24:23;;;;;;;4.47;1.17;;;26.30;3.70;;;;;;6019062;23;20480;-81
2021/08/06 15:26:56;;;;;;;3.70;1.00;;;27.00;1.40;;;;;;6008667;23;20446;-83
2021/08/06 15:29:24;;;;;;;6.00;1.10;;;27.50;1.00;;;;;;6018788;23;20410;-80
2021/08/06 15:32:08;;;;;;;5.77;1.10;;;27.60;1.70;;;;;;6009415;23;20778;-82
2021/08/06 15:34:35;;;;;;;3.87;1.03;;;28.10;1.00;;;;;;6018863;23;20428;-82
2021/08/06 15:37:06;;;;;;;4.30;1.17;;;27.50;1.00;;;;;;6009403;23;20467;-82
2021/08/06 15:39:35;;;;;;;5.70;1.30;;;27.70;1.00;;;;;;6139006;23;20416;-83
2021/08/06 15:42:02;;;;;;;6.13;1.30;;;28.00;1.00;;;;;;6156701;23;20767;-81
2021/08/06 15:45:20;;;;;;;;;;;;;;;;;;;;;
2021/08/06 16:01:56;;;;;;;4.23;1.40;;;25.30;8.60;;;;;;5799659;24;20430;-83
2021/08/06 16:04:26;;;;;;;3.07;0.70;;;27.40;5.00;;;;;;5861025;24;20426;-84
2021/08/06 16:06:53;;;;;;;3.50;1.17;;;27.70;1.00;;;;;;5979158;23;20935;-81
2021/08/06 16:09:20;;;;;;;4.23;0.90;;;26.80;1.00;;;;;;6154783;23;20425;-80
2021/08/06 16:11:46;;;;;;;3.70;1.10;;;26.30;1.00;;;;;;6165095;23;20433;-80
2021/08/06 16:14:13;;;;;;;7.80;1.20;;;26.80;1.50;;;;;;6165980;23;21017;-79
2021/08/06 16:16:40;;;;;;;4.47;1.20;;;26.60;1.10;;;;;;6156219;23;20438;-80
2021/08/06 16:19:07;;;;;;;3.60;1.00;;;26.20;1.30;;;;;;6155697;23;20430;-80
2021/08/06 16:21:35;;;;;;;4.27;0.97;;;25.80;4.40;;;;;;6156303;23;20481;-80
2021/08/06 16:24:03;;;;;;;4.30;1.30;;;25.10;5.70;;;;;;6165819;23;20918;-81
2021/08/06 17:06:50;;;;;;;4.07;1.20;;;22.30;20.90;;;;;;6154850;23;20453;-82
2021/08/06 17:19:40;;;;;;;;;;;;;;;;;;;;;
2021/08/06 17:28:01;;;;;;;4.00;1.20;;;21.30;26.60;;;;;;6121016;23;20438;-88
2021/08/06 17:30:28;;;;;;;3.93;1.27;;;21.30;28.80;;;;;;6125828;23;20399;-75
2021/08/06 17:33:15;;;;;;;5.93;1.60;;;21.20;31.70;;;;;;6126754;23;20917;-89
2021/08/06 17:35:45;;;;;;;3.80;1.10;;;21.10;33.10;;;;;;6113070;23;20743;-81
2021/08/06 17:38:52;;;;;;;3.93;1.40;;;21.00;39.30;;;;;;6125887;23;20403;-81
2021/08/06 17:41:20;;;;;;;3.50;1.17;;;20.70;45.00;;;;;;6119431;23;20430;-81
2021/08/06 17:43:59;;;;;;;3.97;1.30;;;20.10;67.00;;;;;;6126259;23;20442;-81
2021/08/06 17:46:27;;;;;;;4.03;1.40;;;19.40;99.90;;;;;;6136016;23;20433;-80
2021/08/06 17:49:01;;;;;;;4.40;2.17;;;18.30;99.90;;;;;;6135688;23;20411;-81
2021/08/06 17:51:43;;;;;;;5.83;2.60;;;18.10;99.90;;;;;;6126012;23;20413;-83
2021/08/06 17:54:10;;;;;;;5.30;3.33;;;17.80;99.90;;;;;;6126149;23;20430;-82
2021/08/06 17:56:40;;;;;;;9.00;8.13;;;17.40;99.90;;;;;;6124610;23;20804;-83
2021/08/06 17:59:07;;;;;;;8.30;7.70;;;17.60;99.90;;;;;;6135542;23;20406;-82
2021/08/06 18:01:46;;;;;;;;;;;;;;;;;;;;;
2021/08/06 18:04:34;;;;;;;20.50;19.50;;;17.30;99.90;;;;;;6135980;23;20399;-88
2021/08/06 18:07:14;;;;;;;38.57;36.97;;;17.20;99.90;;;;;;6125541;23;20533;-90
2021/08/06 18:10:01;;;;;;;54.67;52.37;;;17.40;99.90;;;;;;6124668;23;20544;-86
2021/08/06 18:12:45;;;;;;;59.20;56.70;;;17.60;99.90;;;;;;6135938;23;20410;-87
2021/08/06 18:15:28;;;;;;;62.23;59.63;;;17.60;99.90;;;;;;6127287;23;20489;-90
2021/08/06 18:31:56;;;;;;;66.60;63.90;;;17.70;99.90;;;;;;6002058;23;20444;-93
2021/08/06 18:35:11;;;;;;;63.40;60.17;;;17.80;99.90;;;;;;5977560;23;20422;-92
2021/08/06 18:37:57;;;;;;;69.60;66.77;;;17.70;99.90;;;;;;6016671;23;20505;-93
2021/08/06 18:40:49;;;;;;;65.93;63.00;;;17.60;99.90;;;;;;6124801;23;20828;-91
2021/08/06 18:43:41;;;;;;;69.13;66.30;;;17.60;99.90;;;;;;6127053;23;20919;-88
2021/08/06 18:46:15;;;;;;;72.63;69.67;;;17.50;99.90;;;;;;6137450;23;20421;-92
2021/08/06 18:48:44;;;;;;;70.70;67.50;;;17.40;99.90;;;;;;6136996;23;20969;-93
2021/08/06 18:51:13;;;;;;;82.07;78.67;;;17.40;99.90;;;;;;6137391;23;20418;-93
2021/08/06 18:53:43;;;;;;;68.87;66.07;;;17.30;99.90;;;;;;6137862;23;20744;-93
2021/08/06 18:56:13;;;;;;;53.30;51.10;;;17.40;99.90;;;;;;6137183;23;20415;-92
2021/08/06 18:58:50;;;;;;;41.93;40.30;;;17.30;99.90;;;;;;6128590;23;20430;-89
2021/08/06 19:01:23;;;;;;;23.87;22.47;;;17.30;99.90;;;;;;6138357;23;20460;-92
2021/08/06 19:03:52;;;;;;;23.37;22.30;;;17.30;99.90;;;;;;6129581;23;20898;-91
2021/08/06 19:06:21;;;;;;;24.80;23.77;;;17.30;99.90;;;;;;6127861;23;20434;-92
2021/08/06 19:08:54;;;;;;;16.93;15.93;;;17.30;99.90;;;;;;6127455;23;20410;-86
2021/08/06 19:11:23;;;;;;;19.53;18.30;;;17.30;99.90;;;;;;6128317;23;20403;-91
2021/08/06 19:13:50;;;;;;;16.60;15.80;;;17.40;99.90;;;;;;6128863;23;20407;-87
2021/08/06 19:16:19;;;;;;;14.90;14.10;;;17.20;99.90;;;;;;6127911;23;20470;-90
2021/08/06 19:18:48;;;;;;;10.70;9.90;;;17.20;99.90;;;;;;6137476;23;20421;-91
2021/08/06 19:21:16;;;;;;;14.60;13.80;;;17.30;99.90;;;;;;6129652;23;20403;-92
2021/08/06 19:23:46;;;;;;;14.90;14.10;;;17.10;99.90;;;;;;6138347;23;20493;-90
2021/08/06 19:26:14;;;;;;;15.23;14.27;;;17.10;99.90;;;;;;6126906;23;20901;-91
2021/08/06 19:28:41;;;;;;;19.83;18.93;;;17.10;99.90;;;;;;6137944;23;20447;-90
2021/08/06 19:31:16;;;;;;;14.57;13.77;;;16.90;99.90;;;;;;6127517;23;20395;-90
2021/08/06 19:33:54;;;;;;;;;;;;;;;;;;;;;
2021/08/06 19:36:22;;;;;;;17.70;16.80;;;16.90;99.90;;;;;;6127228;23;20708;-90
2021/08/06 19:38:54;;;;;;;17.70;16.80;;;16.90;99.90;;;;;;6137303;23;20497;-89
2021/08/06 19:41:22;;;;;;;21.77;20.47;;;16.80;99.90;;;;;;6126408;23;20462;-88
2021/08/06 19:43:49;;;;;;;28.30;27.03;;;16.80;99.90;;;;;;6130512;23;20878;-89
2021/08/06 19:46:25;;;;;;;24.00;22.80;;;16.60;99.90;;;;;;6141603;23;20407;-89
2021/08/06 19:48:56;;;;;;;21.43;20.43;;;16.60;99.90;;;;;;6128413;23;20501;-91
2021/08/06 19:51:44;;;;;;;22.67;21.47;;;16.60;99.90;;;;;;6138002;23;20440;-91
2021/08/06 19:54:16;;;;;;;22.90;21.70;;;16.60;99.90;;;;;;6136704;23;20418;-90
2021/08/06 19:56:47;;;;;;;23.17;21.83;;;16.60;99.90;;;;;;6125948;23;20462;-90
2021/08/06 19:59:21;;;;;;;25.80;24.60;;;16.50;99.90;;;;;;6127088;23;20407;-89
2021/08/06 20:01:49;;;;;;;26.10;24.63;;;16.40;99.90;;;;;;6136698;23;20456;-88
2021/08/06 20:04:24;;;;;;;24.50;23.40;;;16.40;99.90;;;;;;6126756;23;20410;-90
2021/08/06 20:06:51;;;;;;;26.30;25.10;;;16.40;99.90;;;;;;6126826;23;20458;-89
2021/08/06 20:09:35;;;;;;;34.30;32.60;;;16.40;99.90;;;;;;6136912;23;20402;-89
2021/08/06 20:12:22;;;;;;;33.50;32.00;;;16.40;99.90;;;;;;6136726;23;20829;-88
2021/08/06 20:15:54;;;;;;;;;;;;;;;;;;;;;
2021/08/06 20:21:41;;;;;;;23.83;22.10;;;16.60;99.90;;;;;;6115269;23;20411;-90
2021/08/06 20:27:38;;;;;;;12.10;11.00;;;16.70;99.90;;;;;;6090438;23;20464;-89
2021/08/06 20:42:55;;;;;;;6.07;5.60;;;16.90;99.90;;;;;;6162792;23;20502;-89
2021/08/06 20:45:50;;;;;;;5.80;5.40;;;16.90;99.90;;;;;;6165937;23;20416;-89
2021/08/06 20:48:50;;;;;;;;;;;;;;;;;;;;;
2021/08/06 21:09:08;;;;;;;;;;;;;;;;;;;;;
2021/08/06 21:12:24;;;;;;;;;;;;;;;;;;;;;
2021/08/06 21:15:25;;;;;;;24.50;23.40;;;16.70;99.90;;;;;;5897575;24;20782;-89
2021/08/06 21:17:58;;;;;;;27.97;26.67;;;16.70;99.90;;;;;;5954196;24;20420;-89
2021/08/06 21:24:24;;;;;;;;;;;;;;;;;;;;;
2021/08/06 21:27:22;;;;;;;;;;;;;;;;;;;;;
2021/08/06 21:33:48;;;;;;;12.00;11.30;;;16.70;99.90;;;;;;6060118;23;20802;-90
2021/08/06 21:40:08;;;;;;;14.33;13.53;;;16.70;99.90;;;;;;6139351;23;20442;-88
2021/08/06 21:42:53;;;;;;;19.00;17.93;;;16.80;99.90;;;;;;6161080;23;20421;-90
2021/08/06 21:48:51;;;;;;;13.40;12.50;;;16.70;99.90;;;;;;6142225;23;20449;-90
2021/08/06 21:51:32;;;;;;;12.70;11.90;;;16.70;99.90;;;;;;6018855;23;20418;-90
2021/08/06 21:54:18;;;;;;;12.10;11.30;;;16.70;99.90;;;;;;6010002;23;20425;-88
2021/08/06 22:00:27;;;;;;;;;;;;;;;;;;;;;
2021/08/06 22:20:02;;;;;;;;;;;;;;;;;;;;;
2021/08/06 22:22:53;;;;;;;;;;;;;;;;;;;;;
2021/08/06 22:26:02;;;;;;;17.37;16.47;;;16.70;99.90;;;;;;6019865;23;20917;-88
2021/08/06 22:28:50;;;;;;;18.87;17.60;;;16.60;99.90;;;;;;6108430;23;20762;-89
2021/08/06 22:31:30;;;;;;;20.57;19.63;;;16.50;99.90;;;;;;6167619;23;20413;-90
2021/08/06 22:34:30;;;;;;;;;;;;;;;;;;;;;
2021/08/06 22:37:41;;;;;;;31.50;30.20;;;16.30;99.90;;;;;;6168425;23;20801;-90
2021/08/06 22:49:27;;;;;;;38.50;36.30;;;16.30;99.90;;;;;;6143435;23;20460;-90
2021/08/06 22:52:23;;;;;;;30.10;28.60;;;16.30;99.90;;;;;;6167244;23;20410;-90
2021/08/06 22:58:22;;;;;;;34.10;32.60;;;16.30;99.90;;;;;;6006338;23;20902;-90
2021/08/06 23:01:09;;;;;;;38.03;36.17;;;16.30;99.90;;;;;;6020234;23;20452;-90
2021/08/06 23:33:01;;;;;;;;;;;;;;;;;;;;;
2021/08/06 23:36:11;;;;;;;;;;;;;;;;;;;;;
2021/08/06 23:42:25;;;;;;;;;;;;;;;;;;;;;
2021/08/06 23:48:28;;;;;;;8.10;7.60;;;16.40;99.90;;;;;;5837604;24;20531;-90
2021/08/06 23:51:38;;;;;;;;;;;;;;;;;;;;;
2021/08/06 23:57:36;;;;;;;7.50;6.90;;;16.50;99.90;;;;;;6083311;23;20439;-90
